createdAt,value
2023-02-17T00:00:54.111Z,98543.47
2023-02-17T00:04:03.939Z,98549.09
2023-02-17T00:07:10.616Z,98550.47
2023-02-17T00:10:16.562Z,98528.16
2023-02-17T00:13:23.228Z,98551.53
2023-02-17T00:16:32.331Z,98539.69
2023-02-17T00:19:41.663Z,98542.09
2023-02-17T00:22:47.568Z,98543.06
2023-02-17T00:25:54.278Z,98541.34
2023-02-17T00:29:02.084Z,98550.19
2023-02-17T00:32:10.709Z,98533.94
2023-02-17T00:35:19.882Z,98529.25
2023-02-17T00:38:26.845Z,98535.44
2023-02-17T00:41:33.802Z,98540.88
2023-02-17T00:44:40.486Z,98537.53
2023-02-17T00:47:46.255Z,98533.13
2023-02-17T00:50:55.582Z,98529.25
2023-02-17T00:54:01.417Z,98523.06
2023-02-17T00:57:08.268Z,98523.69
2023-02-17T01:00:16.083Z,98514.38
2023-02-17T01:03:23.159Z,98509.84
2023-02-17T01:06:36.807Z,98507.06
2023-02-17T01:09:43.548Z,98504.44
2023-02-17T01:12:49.370Z,98504.44
2023-02-17T01:15:57.075Z,98515.41
2023-02-17T01:19:03.686Z,98507.44
2023-02-17T01:22:13.810Z,98498.75
2023-02-17T01:25:19.830Z,98494.88
2023-02-17T01:28:26.721Z,98498.84
2023-02-17T01:31:39.447Z,98503.03
2023-02-17T01:34:46.341Z,98486.69
2023-02-17T01:37:54.778Z,98492.97
2023-02-17T01:41:07.797Z,98495.59
2023-02-17T01:44:21.987Z,98481.75
2023-02-17T01:47:32.840Z,98490.84
2023-02-17T01:50:48.222Z,98500.66
2023-02-17T01:54:10.573Z,98488.28
2023-02-17T01:57:26.786Z,98483.28
2023-02-17T02:00:44.117Z,98490.78
2023-02-17T02:03:53.576Z,98486.34
2023-02-17T02:07:04.975Z,98484.16
2023-02-17T02:10:17.562Z,98483.53
2023-02-17T02:13:24.925Z,98474.69
2023-02-17T02:16:49.803Z,98469.44
2023-02-17T02:20:31.542Z,98471.97
2023-02-17T02:24:08.319Z,98474.38
2023-02-17T02:27:48.952Z,98476.44
2023-02-17T02:31:27.705Z,98469.66
2023-02-17T02:34:55.245Z,98461.66
2023-02-17T02:38:12.218Z,98458.97
2023-02-17T02:41:29.652Z,98455.53
2023-02-17T02:44:35.599Z,98450.19
2023-02-17T02:47:56.144Z,98445.28
2023-02-17T02:51:35.564Z,98437.09
2023-02-17T02:55:00.652Z,98437.09
2023-02-17T02:58:22.401Z,98432.09
2023-02-17T03:01:47.370Z,98423.56
2023-02-17T03:05:14.249Z,98431.84
2023-02-17T03:08:36.317Z,98432.47
2023-02-17T03:11:49.129Z,98433.06
2023-02-17T03:15:08.212Z,98425.69
2023-02-17T03:18:14.424Z,98422.00
2023-02-17T03:21:23.052Z,98418.41
2023-02-17T03:24:36.463Z,98419.13
2023-02-17T03:27:46.744Z,98413.16
2023-02-17T03:30:53.794Z,98416.03
2023-02-17T03:34:02.452Z,98421.63
2023-02-17T03:37:08.274Z,98420.69
2023-02-17T03:40:17.769Z,98424.16
2023-02-17T03:43:23.877Z,98421.41
2023-02-17T03:46:30.870Z,98427.16
2023-02-17T03:49:36.927Z,98418.19
2023-02-17T03:52:43.611Z,98419.75
2023-02-17T03:55:52.220Z,98416.16
2023-02-17T03:58:59.029Z,98408.78
2023-02-17T04:02:04.925Z,98410.66
2023-02-17T04:05:12.007Z,98410.91
2023-02-17T04:08:18.019Z,98408.75
2023-02-17T04:11:27.576Z,98401.13
2023-02-17T04:14:33.507Z,98403.97
2023-02-17T04:17:41.096Z,98398.00
2023-02-17T04:20:47.385Z,98409.38
2023-02-17T04:23:55.311Z,98391.69
2023-02-17T04:27:03.937Z,98407.47
2023-02-17T04:30:12.924Z,98408.78
2023-02-17T04:33:20.344Z,98403.63
2023-02-17T04:36:28.186Z,98407.06
2023-02-17T04:39:34.100Z,98403.25
2023-02-17T04:42:43.470Z,98411.25
2023-02-17T04:45:49.344Z,98412.34
2023-02-17T04:48:56.237Z,98408.03
2023-02-17T04:52:02.360Z,98390.47
2023-02-17T04:55:11.244Z,98390.09
2023-02-17T04:58:20.958Z,98397.00
2023-02-17T05:01:27.769Z,98391.31
2023-02-17T05:04:34.395Z,98380.81
2023-02-17T05:07:41.087Z,98370.28
2023-02-17T05:10:47.385Z,98366.13
2023-02-17T05:13:56.743Z,98360.75
2023-02-17T05:17:02.627Z,98352.75
2023-02-17T05:20:12.748Z,98356.34
2023-02-17T05:23:18.706Z,98355.97
2023-02-17T05:26:25.445Z,98348.25
2023-02-17T05:29:33.972Z,98362.69
2023-02-17T05:32:40.713Z,98357.66
2023-02-17T05:35:46.608Z,98351.56
2023-02-17T05:38:53.498Z,98357.75
2023-02-17T05:41:59.472Z,98358.97
2023-02-17T05:45:09.593Z,98362.53
2023-02-17T05:48:15.686Z,98357.50
2023-02-17T05:51:22.451Z,98356.78
2023-02-17T05:54:28.374Z,98351.19
2023-02-17T05:57:35.695Z,98349.75
2023-02-17T06:00:44.195Z,98356.91
2023-02-17T06:03:51.377Z,98353.16
2023-02-17T06:06:57.303Z,98358.16
2023-02-17T06:10:04.049Z,98351.00
2023-02-17T06:13:09.953Z,98351.09
2023-02-17T06:16:19.361Z,98346.91
2023-02-17T06:19:25.228Z,98342.09
2023-02-17T06:22:31.882Z,98329.53
2023-02-17T06:25:37.788Z,98317.16
2023-02-17T06:28:44.535Z,98324.78
2023-02-17T06:31:53.207Z,98328.28
2023-02-17T06:34:59.915Z,98332.78
2023-02-17T06:38:05.832Z,98327.97
2023-02-17T06:41:12.604Z,98331.69
2023-02-17T06:44:18.502Z,98322.69
2023-02-17T06:47:27.809Z,98319.25
2023-02-17T06:50:33.704Z,98313.25
2023-02-17T06:53:40.554Z,98313.25
2023-02-17T06:56:46.781Z,98330.47
2023-02-17T06:59:53.487Z,98327.25
2023-02-17T07:03:02.123Z,98329.34
2023-02-17T07:06:09.501Z,98321.19
2023-02-17T07:09:15.449Z,98327.47
2023-02-17T07:12:22.231Z,98323.84
2023-02-17T07:15:28.510Z,98323.69
2023-02-17T07:18:38.343Z,98328.31
2023-02-17T07:21:44.446Z,98335.69
2023-02-17T07:24:51.332Z,98334.19
2023-02-17T07:27:57.343Z,98331.16
2023-02-17T07:31:09.767Z,98331.25
2023-02-17T07:34:18.336Z,98320.00
2023-02-17T07:37:25.211Z,98318.94
2023-02-17T07:40:31.994Z,98333.66
2023-02-17T07:43:38.913Z,98336.84
2023-02-17T07:46:45.042Z,98337.34
2023-02-17T07:49:54.466Z,98319.09
2023-02-17T07:53:00.347Z,98309.50
2023-02-17T07:56:08.547Z,98308.16
2023-02-17T07:59:16.396Z,98310.09
2023-02-17T08:02:23.258Z,98306.06
2023-02-17T08:05:31.911Z,98311.78
2023-02-17T08:08:51.124Z,98306.78
2023-02-17T08:12:09.606Z,98301.94
2023-02-17T08:15:17.082Z,98297.19
2023-02-17T08:18:23.058Z,98298.03
2023-02-17T08:21:33.524Z,98291.25
2023-02-17T08:24:39.389Z,98289.56
2023-02-17T08:27:46.277Z,98292.34
2023-02-17T08:30:52.177Z,98297.22
2023-02-17T08:34:00.438Z,98291.78
2023-02-17T08:37:10.238Z,98300.25
2023-02-17T08:40:17.050Z,98306.75
2023-02-17T08:43:22.905Z,98303.44
2023-02-17T08:46:31.268Z,98295.38
2023-02-17T08:49:37.341Z,98297.44
2023-02-17T08:52:46.675Z,98300.66
2023-02-17T08:55:52.460Z,98292.06
2023-02-17T08:59:00.255Z,98291.22
2023-02-17T09:02:06.320Z,98284.13
2023-02-17T09:05:13.983Z,98282.88
2023-02-17T09:08:23.466Z,98292.91
2023-02-17T09:11:30.545Z,98295.09
2023-02-17T09:14:36.828Z,98290.69
2023-02-17T09:17:44.379Z,98295.13
2023-02-17T09:20:50.520Z,98304.56
2023-02-17T09:24:00.009Z,98293.03
2023-02-17T09:27:06.100Z,98292.91
2023-02-17T09:30:14.867Z,98284.56
2023-02-17T09:33:20.801Z,98272.91
2023-02-17T09:36:33.746Z,98279.84
2023-02-17T09:39:42.334Z,98270.28
2023-02-17T09:42:50.543Z,98258.75
2023-02-17T09:46:04.369Z,98264.31
2023-02-17T09:49:19.270Z,98267.19
2023-02-17T09:52:36.537Z,98264.88
2023-02-17T09:55:54.844Z,98265.53
2023-02-17T09:59:10.343Z,98275.00
2023-02-17T10:02:31.251Z,98276.94
2023-02-17T10:05:45.562Z,98273.03
2023-02-17T10:09:02.131Z,98267.19
2023-02-17T10:12:18.889Z,98272.47
2023-02-17T10:15:34.721Z,98268.19
2023-02-17T10:18:50.619Z,98256.09
2023-02-17T10:22:14.022Z,98263.19
2023-02-17T10:25:28.226Z,98251.53
2023-02-17T10:28:54.065Z,98248.72
2023-02-17T10:32:22.484Z,98252.03
2023-02-17T10:35:51.328Z,98253.09
2023-02-17T10:39:09.614Z,98248.00
2023-02-17T10:42:28.291Z,98226.03
2023-02-17T10:45:41.397Z,98223.13
2023-02-17T10:48:55.473Z,98216.84
2023-02-17T10:52:09.062Z,98214.38
2023-02-17T10:55:28.622Z,98208.59
2023-02-17T10:58:44.357Z,98197.28
2023-02-17T11:01:54.820Z,98202.78
2023-02-17T11:05:00.822Z,98201.25
2023-02-17T11:08:31.293Z,98193.69
2023-02-17T11:11:40.033Z,98171.31
2023-02-17T11:14:51.965Z,98166.13
2023-02-17T11:18:11.910Z,98153.09
2023-02-17T11:21:19.007Z,98155.06
2023-02-17T11:24:25.549Z,98142.63
2023-02-17T11:27:33.360Z,98137.38
2023-02-17T11:30:41.715Z,98137.78
2023-02-17T11:33:51.173Z,98131.22
2023-02-17T11:37:07.236Z,98132.00
2023-02-17T11:40:29.252Z,98126.72
2023-02-17T11:43:36.031Z,98124.88
2023-02-17T11:46:55.920Z,98118.75
2023-02-17T11:50:41.277Z,98107.59
2023-02-17T11:54:07.789Z,98097.28
2023-02-17T11:57:39.260Z,98108.97
2023-02-17T12:01:12.097Z,98109.94
2023-02-17T12:04:30.975Z,98104.81
2023-02-17T12:08:02.796Z,98094.59
2023-02-17T12:11:32.181Z,98090.41
2023-02-17T12:15:10.175Z,98091.97
2023-02-17T12:18:42.397Z,98088.72
2023-02-17T12:22:11.752Z,98084.88
2023-02-17T12:25:31.150Z,98096.97
2023-02-17T12:29:31.954Z,98079.09
2023-02-17T12:33:08.193Z,98071.38
2023-02-17T12:36:26.852Z,98070.00
2023-02-17T12:39:44.690Z,98059.75
2023-02-17T12:43:05.118Z,98054.69
2023-02-17T12:46:23.280Z,98065.72
2023-02-17T12:49:40.609Z,98062.25
2023-02-17T12:53:03.678Z,98055.06
2023-02-17T12:56:51.136Z,98054.47
2023-02-17T13:00:05.616Z,98044.63
2023-02-17T13:03:13.898Z,98045.50
2023-02-17T13:06:39.452Z,98033.72
2023-02-17T13:09:56.661Z,98023.50
2023-02-17T13:13:21.274Z,98015.28
2023-02-17T13:16:35.599Z,98011.13
2023-02-17T13:19:42.267Z,98012.13
2023-02-17T13:22:51.422Z,97994.44
2023-02-17T13:26:29.373Z,97999.00
2023-02-17T13:29:39.416Z,97991.75
2023-02-17T13:33:08.917Z,97984.38
2023-02-17T13:36:20.846Z,97990.81
2023-02-17T13:39:41.792Z,97990.09
2023-02-17T13:42:50.458Z,97973.81
2023-02-17T13:46:10.955Z,97964.09
2023-02-17T13:49:29.535Z,97964.44
2023-02-17T13:52:36.111Z,97955.53
2023-02-17T13:55:43.562Z,97963.50
2023-02-17T13:58:49.412Z,97959.72
2023-02-17T14:01:58.006Z,97952.59
2023-02-17T14:05:21.850Z,97949.97
2023-02-17T14:08:40.174Z,97955.75
2023-02-17T14:11:46.304Z,97935.78
2023-02-17T14:14:53.719Z,97938.34
2023-02-17T14:18:00.275Z,97949.09
2023-02-17T14:21:13.262Z,97950.56
2023-02-17T14:24:32.201Z,97935.56
2023-02-17T14:27:47.277Z,97928.44
2023-02-17T14:30:54.713Z,97924.16
2023-02-17T14:34:05.979Z,97926.31
2023-02-17T14:37:31.173Z,97923.06
2023-02-17T14:40:40.013Z,97917.63
2023-02-17T14:43:46.056Z,97908.19
2023-02-17T14:46:52.782Z,97895.97
2023-02-17T14:49:58.737Z,97893.91
2023-02-17T14:53:17.614Z,97888.81
2023-02-17T14:56:32.671Z,97891.13
2023-02-17T14:59:39.836Z,97887.72
2023-02-17T15:02:45.987Z,97884.75
2023-02-17T15:05:53.485Z,97882.66
2023-02-17T15:09:04.275Z,97875.66
2023-02-17T15:12:20.233Z,97885.28
2023-02-17T15:15:26.575Z,97867.75
2023-02-17T15:18:33.547Z,97859.34
2023-02-17T15:21:43.239Z,97851.44
2023-02-17T15:24:53.236Z,97850.09
2023-02-17T15:27:59.504Z,97840.78
2023-02-17T15:31:06.747Z,97830.28
2023-02-17T15:34:18.970Z,97810.78
2023-02-17T15:37:25.886Z,97801.53
2023-02-17T15:40:34.908Z,97815.59
2023-02-17T15:43:41.921Z,97812.78
2023-02-17T15:46:49.066Z,97805.00
2023-02-17T15:49:55.825Z,97782.22
2023-02-17T15:53:02.728Z,97778.09
2023-02-17T15:56:22.335Z,97780.41
2023-02-17T15:59:31.123Z,97779.25
2023-02-17T16:02:37.959Z,97769.81
2023-02-17T16:05:45.537Z,97786.56
2023-02-17T16:08:52.545Z,97768.19
2023-02-17T16:12:01.815Z,97794.31
2023-02-17T16:15:14.226Z,97771.84
2023-02-17T16:18:26.009Z,97778.75
2023-02-17T16:21:39.561Z,97783.03
2023-02-17T16:24:47.031Z,97780.06
2023-02-17T16:27:58.087Z,97773.47
2023-02-17T16:31:13.822Z,97750.00
2023-02-17T16:34:24.882Z,97742.88
2023-02-17T16:37:30.968Z,97729.66
2023-02-17T16:40:47.338Z,97729.50
2023-02-17T16:43:58.942Z,97714.25
2023-02-17T16:47:08.987Z,97702.69
2023-02-17T16:50:27.126Z,97698.56
2023-02-17T16:53:33.993Z,97696.41
2023-02-17T16:56:46.496Z,97697.41
2023-02-17T16:59:56.183Z,97684.66
2023-02-17T17:03:04.998Z,97703.34
2023-02-17T17:06:25.719Z,97704.50
2023-02-17T17:09:31.636Z,97680.19
2023-02-17T17:12:38.882Z,97680.69
2023-02-17T17:15:49.084Z,97675.06
2023-02-17T17:18:56.309Z,97675.00
2023-02-17T17:22:04.960Z,97681.47
2023-02-17T17:25:18.517Z,97651.97
2023-02-17T17:28:26.562Z,97646.41
2023-02-17T17:31:40.965Z,97665.25
2023-02-17T17:34:47.176Z,97684.09
2023-02-17T17:37:54.289Z,97687.56
2023-02-17T17:41:00.292Z,97677.97
2023-02-17T17:44:10.481Z,97674.16
2023-02-17T17:47:29.821Z,97680.44
2023-02-17T17:50:36.792Z,97686.53
2023-02-17T17:53:42.892Z,97692.03
2023-02-17T17:56:50.504Z,97689.66
2023-02-17T17:59:58.172Z,97678.25
2023-02-17T18:03:08.017Z,97679.13
2023-02-17T18:06:21.886Z,97659.28
2023-02-17T18:09:36.035Z,97669.75
2023-02-17T18:12:45.334Z,97671.09
2023-02-17T18:15:52.635Z,97670.09
2023-02-17T18:19:06.091Z,97682.66
2023-02-17T18:22:16.323Z,97671.41
2023-02-17T18:25:23.200Z,97673.41
2023-02-17T18:28:30.034Z,97680.50
2023-02-17T18:31:38.120Z,97670.25
2023-02-17T18:34:47.449Z,97670.25
2023-02-17T18:37:53.915Z,97679.84
2023-02-17T18:41:03.210Z,97671.88
2023-02-17T18:44:11.207Z,97663.59
2023-02-17T18:47:18.024Z,97677.81
2023-02-17T18:50:27.107Z,97674.19
2023-02-17T18:53:36.245Z,97663.59
2023-02-17T18:56:42.326Z,97684.94
2023-02-17T18:59:50.788Z,97687.38
2023-02-17T19:03:03.484Z,97682.38
2023-02-17T19:06:19.422Z,97675.44
2023-02-17T19:09:25.306Z,97683.38
2023-02-17T19:12:32.159Z,97674.44
2023-02-17T19:15:38.161Z,97680.25
2023-02-17T19:18:46.949Z,97687.66
2023-02-17T19:21:56.093Z,97695.59
2023-02-17T19:25:07.012Z,97698.25
2023-02-17T19:28:13.134Z,97707.47
2023-02-17T19:31:23.452Z,97701.09
2023-02-17T19:34:31.357Z,97703.06
2023-02-17T19:37:43.662Z,97701.47
2023-02-17T19:40:50.658Z,97705.38
2023-02-17T19:43:57.379Z,97705.41
2023-02-17T19:47:05.007Z,97707.06
2023-02-17T19:50:12.352Z,97694.63
2023-02-17T19:53:27.601Z,97698.09
2023-02-17T19:56:37.157Z,97689.81
2023-02-17T19:59:43.017Z,97685.34
2023-02-17T20:02:50.220Z,97677.09
2023-02-17T20:05:56.179Z,97675.44
2023-02-17T20:09:14.878Z,97678.06
2023-02-17T20:12:21.939Z,97667.63
2023-02-17T20:15:28.864Z,97684.34
2023-02-17T20:18:34.772Z,97684.50
2023-02-17T20:21:47.176Z,97685.47
2023-02-17T20:24:55.720Z,97671.09
2023-02-17T20:28:04.380Z,97675.03
2023-02-17T20:31:11.980Z,97677.00
2023-02-17T20:34:34.901Z,97674.47
2023-02-17T20:37:40.748Z,97688.50
2023-02-17T20:40:50.122Z,97677.78
2023-02-17T20:43:56.344Z,97682.53
2023-02-17T20:47:17.587Z,97666.25
2023-02-17T20:50:26.171Z,97653.25
2023-02-17T20:53:32.903Z,97655.38
2023-02-17T20:56:45.376Z,97665.81
2023-02-17T20:59:52.249Z,97661.00
2023-02-17T21:02:58.590Z,97655.50
2023-02-17T21:06:24.356Z,97658.38
2023-02-17T21:09:30.698Z,97657.50
2023-02-17T21:12:40.602Z,97652.91
2023-02-17T21:15:46.794Z,97650.09
2023-02-17T21:18:55.293Z,97637.16
2023-02-17T21:22:01.522Z,97631.53
2023-02-17T21:25:12.240Z,97627.19
2023-02-17T21:28:25.445Z,97640.28
2023-02-17T21:31:32.359Z,97653.19
2023-02-17T21:34:42.032Z,97651.56
2023-02-17T21:37:48.937Z,97643.78
2023-02-17T21:40:55.033Z,97635.66
2023-02-17T21:44:16.928Z,97629.34
2023-02-17T21:47:26.912Z,97624.19
2023-02-17T21:50:37.505Z,97624.03
2023-02-17T21:53:43.790Z,97637.75
2023-02-17T21:56:50.629Z,97625.59
2023-02-17T21:59:59.245Z,97613.34
2023-02-17T22:03:05.980Z,97624.91
2023-02-17T22:06:22.435Z,97623.00
2023-02-17T22:09:32.431Z,97630.31
2023-02-17T22:12:39.842Z,97635.53
2023-02-17T22:15:49.237Z,97643.06
2023-02-17T22:18:55.457Z,97661.91
2023-02-17T22:22:08.639Z,97679.31
2023-02-17T22:25:33.526Z,97685.44
2023-02-17T22:28:40.313Z,97700.47
2023-02-17T22:31:50.630Z,97691.69
2023-02-17T22:34:57.707Z,97694.53
2023-02-17T22:38:03.702Z,97692.72
2023-02-17T22:41:13.870Z,97687.19
2023-02-17T22:44:20.023Z,97681.72
2023-02-17T22:47:29.575Z,97682.38
2023-02-17T22:50:35.547Z,97694.34
2023-02-17T22:53:42.903Z,97690.59
2023-02-17T22:56:48.945Z,97697.00
2023-02-17T22:59:55.767Z,97687.13
2023-02-17T23:03:04.374Z,97701.28
2023-02-17T23:06:18.122Z,97685.63
2023-02-17T23:09:24.064Z,97683.66
2023-02-17T23:12:30.877Z,97684.09
2023-02-17T23:15:42.562Z,97671.06
2023-02-17T23:18:52.004Z,97684.50
2023-02-17T23:22:03.187Z,97672.81
2023-02-17T23:25:09.979Z,97675.84
2023-02-17T23:28:16.010Z,97683.88
2023-02-17T23:31:22.852Z,97682.13
2023-02-17T23:34:32.183Z,97666.78
2023-02-17T23:37:38.949Z,97682.13
2023-02-17T23:40:45.561Z,97684.47
2023-02-17T23:43:52.457Z,97670.16
2023-02-17T23:46:58.286Z,97679.84
2023-02-17T23:50:09.821Z,97675.25
2023-02-17T23:53:15.896Z,97663.25
2023-02-17T23:56:27.954Z,97680.50
2023-02-17T23:59:40.667Z,97680.50
